Flight Track Log - Related Links

Times and Time Zones

All times are in EDT time to prevent confusion due to time zone crossing. See the CES2368 flight status page for this flight to view local times or setup timezone preferences in your user account.

Time Position Orientation Groundspeed Altitude Reporting Facility
EDT Latitude Longitude Course Direction KTS MPH feet Rate Location/Type
Sat 07:46:00 AM 33.1800 104.6471 68° East  Level Estimated
Sat 07:47:00 AM 33.2090 104.7351 68° East  Level Estimated
Sat 07:48:00 AM 33.2379 104.8231 69° East  Level Estimated
Sat 07:49:00 AM 33.2668 104.9112 69° East  Level Estimated
Sat 07:50:00 AM 33.2956 104.9994 69° East  Level Estimated
Sat 07:51:00 AM 33.3243 105.0876 69° East  Level Estimated
Sat 07:52:00 AM 33.3530 105.1759 69° East  Level Estimated
Sat 07:53:00 AM 33.3816 105.2642 69° East  Level Estimated
Sat 07:54:00 AM 33.4102 105.3526 69° East  Level Estimated
Sat 07:55:00 AM 33.4387 105.4411 69° East  Level Estimated
Sat 07:56:00 AM 33.4671 105.5296 69° East  Level Estimated
Sat 07:57:00 AM 33.4955 105.6182 69° East  Level Estimated
Sat 07:58:00 AM 33.5238 105.7068 69° East  Level Estimated
Sat 07:59:00 AM 33.5521 105.7955 69° East  Level Estimated
Sat 08:00:00 AM 33.5802 105.8843 69° East  Level Estimated
Sat 08:01:00 AM 33.6084 105.9731 69° East  Level Estimated
Sat 08:02:00 AM 33.6364 106.0619 69° East  Level Estimated
Sat 08:03:00 AM 33.6644 106.1508 69° East  Level Estimated
Sat 08:04:00 AM 33.6923 106.2398 69° East  Level Estimated
Sat 08:05:00 AM 33.7202 106.3289 69° East  Level Estimated
Sat 08:06:00 AM 33.7480 106.4180 69° East  Level Estimated
Sat 08:07:00 AM 33.7757 106.5071 69° East  Level Estimated
Sat 08:08:00 AM 33.8034 106.5963 70° East  Level Estimated
Sat 08:09:00 AM 33.8310 106.6856 70° East  Level Estimated
Sat 08:10:00 AM 33.8586 106.7749 70° East  Level Estimated
Sat 08:11:00 AM 33.8860 106.8643 70° East  Level Estimated
Sat 08:12:00 AM 33.9134 106.9537 70° East  Level Estimated
Sat 08:13:00 AM 33.9408 107.0432 70° East  Level Estimated
Sat 08:14:00 AM 33.9681 107.1328 70° East  Level Estimated
Sat 08:15:00 AM 33.9953 107.2224 70° East  Level Estimated
Sat 08:16:00 AM 34.0224 107.3121 70° East  Level Estimated
Sat 08:17:00 AM 34.0495 107.4018 70° East  Level Estimated
Sat 08:18:00 AM 34.0765 107.4916 70° East  Level Estimated
Sat 08:19:00 AM 34.1035 107.5814 70° East  Level Estimated
Sat 08:20:00 AM 34.1304 107.6713 70° East  Level Estimated
Sat 08:21:00 AM 34.1572 107.7613 70° East  Level Estimated
Sat 08:22:00 AM 34.1840 107.8513 70° East  Level Estimated
Sat 08:23:00 AM 34.2107 107.9414 70° East  Level Estimated
Sat 08:24:00 AM 34.2373 108.0315 70° East  Level Estimated
Sat 08:25:00 AM 34.2639 108.1217 70° East  Level Estimated
Sat 08:26:00 AM 34.2904 108.2119 70° East  Level Estimated
Sat 08:27:00 AM 34.3110 108.2824 70° East  Level Estimated
Sat 08:28:00 AM 34.3316 108.3530 71° East  Level Estimated
Sat 08:29:00 AM 34.3522 108.4235 71° East  Level Estimated
Sat 08:30:00 AM 34.3727 108.4941 71° East  Level Estimated
Sat 08:31:00 AM 34.3932 108.5648 71° East  Level Estimated
Sat 08:32:00 AM 34.4136 108.6355 71° East  Level Estimated
Sat 08:33:00 AM 34.4340 108.7062 71° East  Level Estimated
Sat 08:34:00 AM 34.4471 108.7516 71° East  Level Estimated
Sat 08:35:00 AM 34.4471 108.7516 121° Southeast  Level Estimated
Sat 08:36:00 AM 34.4471 108.7516 121° Southeast  Level Estimated
Sat 08:37:00 AM 34.4471 108.7516 121° Southeast  Level Estimated
Sat 08:38:00 AM 34.4471 108.7516 121° Southeast  Level Estimated
Sat 08:39:00 AM 34.4471 108.7516 121° Southeast  Level Estimated
Sat 08:40:00 AM 34.4471 108.7516 121° Southeast  Level Estimated
Sat 08:41:00 AM 34.4471 108.7516 121° Southeast  Level Estimated
Sat 08:42:00 AM 34.4471 108.7516 121° Southeast  Level Estimated
Sat 08:43:00 AM 34.4471 108.7516 121° Southeast  Level Estimated
Sat 08:44:00 AM 34.4471 108.7516 121° Southeast  Level Estimated
Sat 08:45:00 AM 34.4471 108.7516 121° Southeast  Level Estimated
Sat 08:46:00 AM 34.4471 108.7516 121° Southeast  Level Estimated

Login

Don't have an account? Register now (free) for customized features, flight alerts, and more!